アスタナ の空港の天気 - METARとTAF

アスタナ国際空港 ( UACC / TSE ) - カザフスタン アスタナ
飛行場実況気象(Metar)
観測時間03/29 03:00 +06 (03/28 21:00 UTC)
風向・風速南 10m/s
視程10km以上
天気現象
なし
気温3℃
湿度87%
気圧1006hPa
METARUACC 282100Z 18010MPS CAVOK 03/01 Q1006 R22/0///70 NOSIG RMK QFE723/0964
過去の天気等 Google飛行場航空写真 Wunderground天気予報

過去48時間のMETAR

飛行場予報(TAF)
発表時間: 3/28 23:00 +06 (3/28 17:00 UTC)
予報対象時間: 29日0時 +06 ~ 30日0時 +06
風向・風速南 10m/s
視程10km以上
全天の8割程度の雲 雲底高度 210m
全天の8割程度の雲 雲底高度 1,220m
29日0時 +06 ~ 29日3時 +06 に一時的に
風向・風速南南西 8m/s 瞬間風速 13m/s
視程3,000m
天気現象もや
全天の4割程度の雲 雲底高度 90m
29日3時 +06 ~ 29日5時 +06 に徐々に
視程2,000m
天気現象弱い雨 もや
全天の4割程度の雲 雲底高度 120m
全天を覆う雲 雲底高度 180m
29日5時 +06 ~ 29日10時 +06 に一時的に
風向・風速南西 9m/s 瞬間風速 14m/s
視程1,000m
天気現象雪雨 もや
全天の8割程度の雲 雲底高度 90m
29日10時 +06 ~ 29日13時 +06 に一時的に
天気現象弱い雪雨
全天の8割程度の雲 雲底高度 120m
29日13時 +06 から
風向・風速西南西 6m/s
視程6,000m
全天の4割程度の雲 雲底高度 150m
全天の8割程度の雲 雲底高度 210m
TAF UACC 281700Z 2818/2918 18010MPS 9999 BKN007 BKN040 TX02/2910Z TNM01/2918Z
TEMPO 2818/2821 20008G13MPS 3000 BR SCT003
BECMG 2821/2823 2000 -RA BR SCT004 OVC006
TEMPO 2823/2904 22009G14MPS 1000 SNRA BR BKN003
TEMPO 2904/2907 -SNRA BKN004
FM290700 24006MPS 6000 SCT005 BKN007